createdAt,value
2022-10-21T00:00:36.339Z,100391.53
2022-10-21T00:02:41.809Z,100390.44
2022-10-21T00:03:44.384Z,100389.56
2022-10-21T00:04:52.471Z,100392.88
2022-10-21T00:05:55.695Z,100397.31
2022-10-21T00:06:58.139Z,100399.25
2022-10-21T00:08:03.481Z,100402.03
2022-10-21T00:09:06.014Z,100402.84
2022-10-21T00:10:09.194Z,100389.03
2022-10-21T00:11:11.544Z,100387.94
2022-10-21T00:12:16.804Z,100386.00
2022-10-21T00:13:19.266Z,100386.00
2022-10-21T00:14:21.468Z,100388.78
2022-10-21T00:15:23.913Z,100382.44
2022-10-21T00:16:26.082Z,100394.56
2022-10-21T00:17:31.222Z,100385.44
2022-10-21T00:18:35.670Z,100385.44
2022-10-21T00:19:40.111Z,100390.72
2022-10-21T00:20:42.387Z,100382.44
2022-10-21T00:21:44.613Z,100383.47
2022-10-21T00:22:46.853Z,100376.53
2022-10-21T00:23:52.936Z,100366.31
2022-10-21T00:24:55.219Z,100363.56
2022-10-21T00:26:01.214Z,100379.88
2022-10-21T00:27:03.864Z,100370.72
2022-10-21T00:28:06.098Z,100366.06
2022-10-21T00:29:08.376Z,100361.34
2022-10-21T00:30:12.329Z,100368.56
2022-10-21T00:31:16.111Z,100370.47
2022-10-21T00:32:18.656Z,100373.22
2022-10-21T00:33:21.381Z,100374.34
2022-10-21T00:34:28.237Z,100367.97
2022-10-21T00:35:34.268Z,100369.91
2022-10-21T00:36:36.514Z,100373.75
2022-10-21T00:37:38.903Z,100364.91
2022-10-21T00:38:43.340Z,100370.69
2022-10-21T00:39:45.616Z,100381.72
2022-10-21T00:40:47.973Z,100374.78
2022-10-21T00:41:50.203Z,100378.69
2022-10-21T00:42:52.409Z,100379.75
2022-10-21T00:43:59.620Z,100373.16
2022-10-21T00:45:26.349Z,100371.75
2022-10-21T00:46:36.380Z,100358.16
2022-10-21T00:47:53.878Z,100372.28
2022-10-21T00:48:59.515Z,100359.56
2022-10-21T00:50:04.361Z,100364.00
2022-10-21T00:51:09.454Z,100367.84
2022-10-21T00:52:16.563Z,100353.50
2022-10-21T00:53:18.865Z,100338.84
2022-10-21T00:54:25.619Z,100342.72
2022-10-21T00:55:32.638Z,100339.63
2022-10-21T00:56:37.230Z,100332.44
2022-10-21T00:57:40.092Z,100337.38
2022-10-21T00:58:42.886Z,100345.09
2022-10-21T00:59:50.597Z,100342.34
2022-10-21T01:00:56.227Z,100327.44
2022-10-21T01:01:58.601Z,100313.88
2022-10-21T01:03:00.884Z,100318.56
2022-10-21T01:04:04.292Z,100327.94
2022-10-21T01:05:10.071Z,100319.94
2022-10-21T01:06:13.681Z,100323.53
2022-10-21T01:07:16.074Z,100324.63
2022-10-21T01:08:19.496Z,100318.03
2022-10-21T01:09:22.601Z,100314.66
2022-10-21T01:10:24.850Z,100310.81
2022-10-21T01:11:28.055Z,100309.41
2022-10-21T01:12:48.679Z,100308.56
2022-10-21T01:14:03.128Z,100304.38
2022-10-21T01:15:26.559Z,100283.66
2022-10-21T01:16:32.831Z,100285.88
2022-10-21T01:17:45.104Z,100277.00
2022-10-21T01:18:59.160Z,100282.25
2022-10-21T01:20:19.764Z,100271.97
2022-10-21T01:21:41.856Z,100277.50
2022-10-21T01:23:08.723Z,100280.75
2022-10-21T01:25:00.187Z,100273.53
2022-10-21T01:26:21.125Z,100280.97
2022-10-21T01:27:55.158Z,100272.41
2022-10-21T01:29:25.196Z,100259.41
2022-10-21T01:30:41.007Z,100266.34
2022-10-21T01:31:44.988Z,100265.53
2022-10-21T01:33:20.174Z,100261.34
2022-10-21T01:34:58.105Z,100262.44
2022-10-21T01:36:16.242Z,100253.63
2022-10-21T01:37:40.319Z,100257.47
2022-10-21T01:39:11.247Z,100248.38
2022-10-21T01:40:45.687Z,100245.28
2022-10-21T01:41:56.655Z,100244.47
2022-10-21T01:43:08.974Z,100237.28
2022-10-21T01:44:34.425Z,100248.91
2022-10-21T01:46:02.321Z,100233.69
2022-10-21T01:47:16.335Z,100237.81
2022-10-21T01:48:23.731Z,100248.00
2022-10-21T01:49:38.432Z,100226.78
2022-10-21T01:50:47.786Z,100227.88
2022-10-21T01:51:51.685Z,100228.13
2022-10-21T01:53:00.131Z,100217.09
2022-10-21T01:54:09.932Z,100231.72
2022-10-21T01:55:19.099Z,100231.97
2022-10-21T01:56:22.519Z,100231.38
2022-10-21T01:57:29.915Z,100226.72
2022-10-21T01:58:36.902Z,100234.72
2022-10-21T01:59:42.674Z,100222.03
2022-10-21T02:00:46.963Z,100213.75
2022-10-21T02:01:50.347Z,100216.25
2022-10-21T02:02:52.773Z,100227.00
2022-10-21T02:03:59.123Z,100217.09
2022-10-21T02:05:08.344Z,100220.94
2022-10-21T02:06:12.675Z,100211.56
2022-10-21T02:07:15.007Z,100217.09
2022-10-21T02:08:17.437Z,100228.94
2022-10-21T02:09:20.312Z,100224.50
2022-10-21T02:10:25.612Z,100213.47
2022-10-21T02:11:29.770Z,100207.97
2022-10-21T02:12:36.198Z,100205.78
2022-10-21T02:13:45.672Z,100206.06
2022-10-21T02:14:51.255Z,100217.31
2022-10-21T02:15:57.340Z,100202.44
2022-10-21T02:17:00.484Z,100202.44
2022-10-21T02:18:08.753Z,100209.91
2022-10-21T02:19:16.166Z,100209.31
2022-10-21T02:20:19.244Z,100205.47
2022-10-21T02:21:25.510Z,100211.81
2022-10-21T02:22:31.518Z,100223.44
2022-10-21T02:23:36.469Z,100227.00
2022-10-21T02:24:57.313Z,100214.06
2022-10-21T02:25:59.774Z,100218.22
2022-10-21T02:27:02.043Z,100212.38
2022-10-21T02:28:04.958Z,100211.31
2022-10-21T02:29:07.533Z,100214.88
2022-10-21T02:30:10.357Z,100212.72
2022-10-21T02:31:57.604Z,100213.25
2022-10-21T02:33:09.084Z,100211.34
2022-10-21T02:34:27.388Z,100207.50
2022-10-21T02:35:44.143Z,100199.72
2022-10-21T02:36:56.929Z,100201.41
2022-10-21T02:38:06.515Z,100199.72
2022-10-21T02:39:49.266Z,100204.16
2022-10-21T02:40:59.460Z,100198.66
2022-10-21T02:42:07.439Z,100186.53
2022-10-21T02:43:19.788Z,100187.63
2022-10-21T02:44:24.011Z,100194.22
2022-10-21T02:45:28.378Z,100198.91
2022-10-21T02:46:39.511Z,100205.78
2022-10-21T02:47:44.919Z,100203.84
2022-10-21T02:48:48.365Z,100207.47
2022-10-21T02:49:50.587Z,100216.81
2022-10-21T02:50:53.311Z,100218.72
2022-10-21T02:51:55.750Z,100217.09
2022-10-21T02:52:58.139Z,100219.84
2022-10-21T02:54:00.582Z,100219.25
2022-10-21T02:55:02.890Z,100225.59
2022-10-21T02:56:05.344Z,100219.00
2022-10-21T02:57:07.586Z,100214.06
2022-10-21T02:58:09.762Z,100216.81
2022-10-21T02:59:11.974Z,100232.53
2022-10-21T03:00:14.916Z,100211.56
2022-10-21T03:01:17.164Z,100216.25
2022-10-21T03:02:19.775Z,100204.13
2022-10-21T03:03:22.310Z,100206.59
2022-10-21T03:04:24.572Z,100211.03
2022-10-21T03:05:26.932Z,100204.38
2022-10-21T03:06:29.229Z,100202.44
2022-10-21T03:07:31.490Z,100203.84
2022-10-21T03:08:33.851Z,100198.84
2022-10-21T03:09:36.066Z,100197.50
2022-10-21T03:10:38.327Z,100200.00
2022-10-21T03:11:40.506Z,100198.91
2022-10-21T03:12:42.774Z,100184.84
2022-10-21T03:13:44.978Z,100193.13
2022-10-21T03:14:47.165Z,100185.94
2022-10-21T03:15:51.283Z,100202.50
2022-10-21T03:16:53.469Z,100188.69
2022-10-21T03:17:55.803Z,100202.22
2022-10-21T03:18:58.107Z,100203.09
2022-10-21T03:20:00.266Z,100212.19
2022-10-21T03:21:02.441Z,100210.28
2022-10-21T03:22:04.742Z,100228.25
2022-10-21T03:23:10.046Z,100226.88
2022-10-21T03:24:19.849Z,100221.38
2022-10-21T03:25:35.073Z,100224.69
2022-10-21T03:26:37.830Z,100218.06
2022-10-21T03:27:40.152Z,100216.13
2022-10-21T03:28:42.476Z,100194.06
2022-10-21T03:29:44.660Z,100212.56
2022-10-21T03:30:46.837Z,100204.81
2022-10-21T03:31:49.140Z,100204.28
2022-10-21T03:32:51.398Z,100197.94
2022-10-21T03:33:53.600Z,100197.41
2022-10-21T03:34:55.845Z,100206.75
2022-10-21T03:35:58.042Z,100205.69
2022-10-21T03:37:00.331Z,100197.41
2022-10-21T03:38:03.052Z,100181.16
2022-10-21T03:39:05.304Z,100167.03
2022-10-21T03:40:11.457Z,100160.44
2022-10-21T03:41:14.700Z,100156.25
2022-10-21T03:42:16.931Z,100164.28
2022-10-21T03:43:19.171Z,100157.09
2022-10-21T03:44:21.370Z,100165.94
2022-10-21T03:45:26.587Z,100168.72
2022-10-21T03:46:28.762Z,100163.47
2022-10-21T03:47:30.920Z,100173.66
2022-10-21T03:48:33.265Z,100168.13
2022-10-21T03:50:58.066Z,100180.03
2022-10-21T03:52:02.783Z,100178.63
2022-10-21T03:53:13.848Z,100178.28
2022-10-21T03:54:21.086Z,100179.38
2022-10-21T03:55:25.299Z,100174.44
2022-10-21T03:56:27.495Z,100170.84
2022-10-21T03:57:29.815Z,100170.28
2022-10-21T03:58:35.413Z,100165.00
2022-10-21T03:59:37.605Z,100164.50
2022-10-21T04:00:39.809Z,100161.41
2022-10-21T04:01:42.113Z,100162.78
2022-10-21T04:02:45.517Z,100158.06
2022-10-21T04:03:47.710Z,100161.69
2022-10-21T04:04:50.090Z,100150.66
2022-10-21T04:05:52.384Z,100159.75
2022-10-21T04:06:54.583Z,100153.69
2022-10-21T04:07:56.824Z,100160.03
2022-10-21T04:08:59.111Z,100158.94
2022-10-21T04:10:01.415Z,100150.66
2022-10-21T04:11:03.646Z,100135.44
2022-10-21T04:12:05.908Z,100160.28
2022-10-21T04:13:08.162Z,100158.28
2022-10-21T04:14:14.567Z,100156.63
2022-10-21T04:15:21.245Z,100138.44
2022-10-21T04:16:23.644Z,100136.16
2022-10-21T04:17:26.547Z,100128.75
2022-10-21T04:18:29.447Z,100140.59
2022-10-21T04:19:31.725Z,100144.16
2022-10-21T04:20:33.950Z,100136.44
2022-10-21T04:21:36.218Z,100142.22
2022-10-21T04:22:38.829Z,100149.69
2022-10-21T04:23:41.530Z,100153.53
2022-10-21T04:24:43.781Z,100143.56
2022-10-21T04:25:46.507Z,100151.03
2022-10-21T04:26:48.745Z,100144.66
2022-10-21T04:27:50.936Z,100150.19
2022-10-21T04:28:53.100Z,100142.75
2022-10-21T04:29:55.353Z,100143.00
2022-10-21T04:30:57.581Z,100144.09
2022-10-21T04:31:59.836Z,100144.94
2022-10-21T04:33:02.083Z,100147.09
2022-10-21T04:34:04.424Z,100146.81
2022-10-21T04:35:07.049Z,100143.47
2022-10-21T04:36:09.320Z,100141.53
2022-10-21T04:37:14.765Z,100146.19
2022-10-21T04:38:17.343Z,100149.19
2022-10-21T04:39:22.127Z,100141.19
2022-10-21T04:40:24.385Z,100138.16
2022-10-21T04:41:26.672Z,100132.66
2022-10-21T04:43:51.078Z,100136.81
2022-10-21T04:44:53.426Z,100144.00
2022-10-21T04:45:55.892Z,100139.56
2022-10-21T04:46:58.266Z,100121.34
2022-10-21T04:48:07.981Z,100124.38
2022-10-21T04:49:10.329Z,100115.28
2022-10-21T04:50:14.818Z,100111.66
2022-10-21T04:51:17.220Z,100117.44
2022-10-21T04:52:19.478Z,100117.97
2022-10-21T04:53:23.244Z,100116.03
2022-10-21T04:54:25.515Z,100132.84
2022-10-21T04:55:28.112Z,100106.38
2022-10-21T04:56:30.624Z,100116.00
2022-10-21T04:57:33.169Z,100110.22
2022-10-21T04:58:35.377Z,100113.56
2022-10-21T04:59:37.546Z,100124.59
2022-10-21T05:00:39.799Z,100112.69
2022-10-21T05:01:42.048Z,100114.63
2022-10-21T05:02:44.320Z,100111.88
2022-10-21T05:03:46.549Z,100108.03
2022-10-21T05:04:48.986Z,100104.19
2022-10-21T05:05:52.254Z,100103.06
2022-10-21T05:06:54.467Z,100098.69
2022-10-21T05:07:56.667Z,100085.13
2022-10-21T05:08:59.041Z,100089.00
2022-10-21T05:10:02.457Z,100085.66
2022-10-21T05:11:04.786Z,100084.84
2022-10-21T05:12:07.013Z,100084.84
2022-10-21T05:13:09.292Z,100071.28
2022-10-21T05:14:11.512Z,100086.75
2022-10-21T05:15:14.716Z,100088.41
2022-10-21T05:16:16.932Z,100089.25
2022-10-21T05:17:19.120Z,100083.50
2022-10-21T05:18:21.347Z,100084.00
2022-10-21T05:19:27.665Z,100087.59
2022-10-21T05:20:32.537Z,100093.13
2022-10-21T05:21:34.750Z,100088.69
2022-10-21T05:22:37.618Z,100085.66
2022-10-21T05:23:40.099Z,100072.69
2022-10-21T05:24:42.269Z,100077.06
2022-10-21T05:25:45.876Z,100083.44
2022-10-21T05:26:48.152Z,100070.47
2022-10-21T05:27:50.320Z,100078.75
2022-10-21T05:28:52.855Z,100075.97
2022-10-21T05:29:55.120Z,100064.38
2022-10-21T05:30:59.655Z,100064.38
2022-10-21T05:32:01.951Z,100066.56
2022-10-21T05:33:04.662Z,100063.56
2022-10-21T05:34:07.006Z,100065.47
2022-10-21T05:35:09.350Z,100070.72
2022-10-21T05:36:11.551Z,100071.00
2022-10-21T05:37:14.885Z,100077.00
2022-10-21T05:38:17.110Z,100067.06
2022-10-21T05:39:19.385Z,100074.00
2022-10-21T05:40:21.880Z,100080.34
2022-10-21T05:41:27.092Z,100072.59
2022-10-21T05:42:29.305Z,100070.69
2022-10-21T05:43:31.691Z,100061.56
2022-10-21T05:44:33.903Z,100061.31
2022-10-21T05:45:36.157Z,100063.22
2022-10-21T05:46:38.369Z,100077.28
2022-10-21T05:47:41.352Z,100061.00
2022-10-21T05:48:43.639Z,100069.53
2022-10-21T05:49:45.869Z,100079.47
2022-10-21T05:50:52.488Z,100074.47
2022-10-21T05:51:54.678Z,100049.38
2022-10-21T05:52:58.705Z,100071.44
2022-10-21T05:54:03.018Z,100074.72
2022-10-21T05:55:06.376Z,100083.00
2022-10-21T05:56:08.967Z,100091.28
2022-10-21T05:57:13.572Z,100077.50
2022-10-21T05:58:15.837Z,100085.75
2022-10-21T05:59:18.078Z,100086.59
2022-10-21T06:00:20.496Z,100079.16
2022-10-21T06:01:23.185Z,100085.75
2022-10-21T06:02:25.603Z,100081.06
2022-10-21T06:03:31.493Z,100078.31
2022-10-21T06:04:37.903Z,100082.47
2022-10-21T06:05:41.125Z,100074.47
2022-10-21T06:06:43.399Z,100068.13
2022-10-21T06:07:45.671Z,100075.56
2022-10-21T06:08:47.904Z,100078.06
2022-10-21T06:09:50.245Z,100076.13
2022-10-21T06:11:06.481Z,100078.91
2022-10-21T06:12:08.809Z,100075.81
2022-10-21T06:13:11.080Z,100071.97
2022-10-21T06:14:13.460Z,100080.84
2022-10-21T06:15:17.293Z,100079.97
2022-10-21T06:16:19.638Z,100077.81
2022-10-21T06:17:22.419Z,100080.31
2022-10-21T06:18:25.526Z,100084.16
2022-10-21T06:19:27.751Z,100078.63
2022-10-21T06:20:30.156Z,100077.81
2022-10-21T06:21:32.451Z,100092.41
2022-10-21T06:22:34.750Z,100081.38
2022-10-21T06:23:37.037Z,100084.41
2022-10-21T06:24:39.270Z,100075.88
2022-10-21T06:25:41.599Z,100083.31
2022-10-21T06:26:43.914Z,100077.81
2022-10-21T06:27:46.228Z,100077.53
2022-10-21T06:28:48.484Z,100079.72
2022-10-21T06:29:51.439Z,100085.00
2022-10-21T06:30:53.704Z,100083.88
2022-10-21T06:31:55.979Z,100066.25
2022-10-21T06:32:58.247Z,100078.94
2022-10-21T06:34:00.447Z,100092.22
2022-10-21T06:35:02.833Z,100096.38
2022-10-21T06:36:05.597Z,100083.13
2022-10-21T06:37:07.883Z,100102.69
2022-10-21T06:38:10.120Z,100108.47
2022-10-21T06:39:12.344Z,100105.50
2022-10-21T06:40:14.627Z,100101.06
2022-10-21T06:41:18.602Z,100096.97
2022-10-21T06:42:20.830Z,100095.88
2022-10-21T06:44:45.385Z,100097.28
2022-10-21T06:45:47.640Z,100104.75
2022-10-21T06:46:49.852Z,100099.56
2022-10-21T06:47:52.037Z,100099.28
2022-10-21T06:48:54.602Z,100107.81
2022-10-21T06:49:56.930Z,100104.81
2022-10-21T06:51:05.193Z,100106.22
2022-10-21T06:52:07.398Z,100104.84
2022-10-21T06:53:09.712Z,100108.19
2022-10-21T06:54:11.954Z,100107.66
2022-10-21T06:55:14.350Z,100120.38
2022-10-21T06:56:18.577Z,100109.88
2022-10-21T06:57:20.805Z,100117.66
2022-10-21T06:58:23.133Z,100117.97
2022-10-21T06:59:25.411Z,100113.28
2022-10-21T07:02:06.108Z,100109.72
2022-10-21T07:03:08.524Z,100115.88
2022-10-21T07:04:11.058Z,100116.19
2022-10-21T07:05:13.377Z,100115.66
2022-10-21T07:06:16.359Z,100114.00
2022-10-21T07:07:19.447Z,100117.09
2022-10-21T07:08:22.590Z,100103.88
2022-10-21T07:09:36.629Z,100113.59
2022-10-21T07:10:38.874Z,100102.59
2022-10-21T07:11:41.317Z,100104.53
2022-10-21T07:12:43.730Z,100097.97
2022-10-21T07:13:48.323Z,100107.38
2022-10-21T07:14:50.643Z,100111.00
2022-10-21T07:16:10.409Z,100105.50
2022-10-21T07:17:12.682Z,100095.34
2022-10-21T07:18:14.965Z,100100.63
2022-10-21T07:19:17.162Z,100091.28
2022-10-21T07:20:19.359Z,100088.78
2022-10-21T07:21:24.573Z,100094.34
2022-10-21T07:22:26.861Z,100075.00
2022-10-21T07:23:31.677Z,100086.94
2022-10-21T07:24:34.023Z,100086.38
2022-10-21T07:25:36.988Z,100080.88
2022-10-21T07:26:39.928Z,100093.91
2022-10-21T07:27:47.604Z,100088.09
2022-10-21T07:28:52.421Z,100088.94
2022-10-21T07:29:54.755Z,100104.97
2022-10-21T07:30:57.003Z,100086.47
2022-10-21T07:31:59.374Z,100082.88
2022-10-21T07:33:03.809Z,100073.50
2022-10-21T07:34:08.316Z,100074.06
2022-10-21T07:35:10.583Z,100078.22
2022-10-21T07:36:18.962Z,100081.81
2022-10-21T07:37:21.298Z,100073.22
2022-10-21T07:38:24.539Z,100078.75
2022-10-21T07:39:27.711Z,100077.94
2022-10-21T07:40:30.630Z,100060.53
2022-10-21T07:41:37.783Z,100075.19
2022-10-21T07:42:39.990Z,100059.16
2022-10-21T07:43:42.280Z,100052.22
2022-10-21T07:44:45.280Z,100060.78
2022-10-21T07:45:47.573Z,100053.88
2022-10-21T07:46:50.577Z,100075.19
2022-10-21T07:47:52.826Z,100080.44
2022-10-21T07:48:55.824Z,100074.38
2022-10-21T07:49:58.027Z,100077.38
2022-10-21T07:51:06.285Z,100082.66
2022-10-21T07:52:08.537Z,100076.56
2022-10-21T07:53:12.756Z,100078.22
2022-10-21T07:54:16.183Z,100087.59
2022-10-21T07:55:18.586Z,100094.81
2022-10-21T07:56:24.306Z,100079.88
2022-10-21T07:57:26.527Z,100084.56
2022-10-21T07:58:29.717Z,100077.94
2022-10-21T07:59:31.928Z,100076.81
2022-10-21T08:00:34.165Z,100078.50
2022-10-21T08:01:36.501Z,100072.66
2022-10-21T08:02:40.206Z,100072.66
2022-10-21T08:03:42.805Z,100071.56
2022-10-21T08:04:45.078Z,100069.88
2022-10-21T08:05:47.264Z,100073.19
2022-10-21T08:06:50.338Z,100069.63
2022-10-21T08:07:52.583Z,100072.09
2022-10-21T08:08:59.968Z,100071.00
2022-10-21T08:10:04.147Z,100073.50
2022-10-21T08:11:07.344Z,100082.88
2022-10-21T08:12:12.939Z,100077.63
2022-10-21T08:13:17.868Z,100075.72
2022-10-21T08:14:20.088Z,100073.22
2022-10-21T08:15:22.302Z,100076.81
2022-10-21T08:16:25.706Z,100074.06
2022-10-21T08:17:28.026Z,100070.75
2022-10-21T08:18:30.351Z,100074.09
2022-10-21T08:19:32.795Z,100061.94
2022-10-21T08:20:39.028Z,100064.41
2022-10-21T08:21:41.189Z,100061.38
2022-10-21T08:22:43.440Z,100067.72
2022-10-21T08:23:45.972Z,100069.38
2022-10-21T08:24:48.244Z,100067.72
2022-10-21T08:25:53.311Z,100060.81
2022-10-21T08:26:55.714Z,100061.09
2022-10-21T08:27:57.990Z,100074.63
2022-10-21T08:29:01.840Z,100078.25
2022-10-21T08:30:04.479Z,100060.56
2022-10-21T08:31:09.617Z,100070.78
2022-10-21T08:32:11.864Z,100064.72
2022-10-21T08:33:14.905Z,100065.56
2022-10-21T08:34:17.398Z,100076.91
2022-10-21T08:35:19.560Z,100052.56
2022-10-21T08:36:25.212Z,100051.47
2022-10-21T08:37:27.498Z,100061.75
2022-10-21T08:38:29.699Z,100044.88
2022-10-21T08:39:31.919Z,100033.81
2022-10-21T08:40:54.966Z,100037.41
2022-10-21T08:42:01.098Z,100039.09
2022-10-21T08:43:17.221Z,100034.38
2022-10-21T08:44:35.777Z,100034.66
2022-10-21T08:46:02.949Z,100046.00
2022-10-21T08:47:20.061Z,100049.03
2022-10-21T08:48:29.618Z,100045.44
2022-10-21T08:49:45.638Z,100046.25
2022-10-21T08:50:51.030Z,100031.91
2022-10-21T08:52:03.507Z,100023.88
2022-10-21T08:53:18.294Z,100027.19
2022-10-21T08:54:40.249Z,100015.81
2022-10-21T08:55:44.786Z,100021.34
2022-10-21T08:56:50.555Z,100014.16
2022-10-21T08:57:56.088Z,100014.41
2022-10-21T08:58:58.746Z,100010.25
2022-10-21T09:00:01.052Z,100008.28
2022-10-21T09:01:13.934Z,100013.00
2022-10-21T09:02:31.785Z,100011.31
2022-10-21T09:04:07.770Z,100009.09
2022-10-21T09:05:30.666Z,100006.56
2022-10-21T09:06:46.001Z,100010.47
2022-10-21T09:08:10.040Z,100016.81
2022-10-21T09:09:35.072Z,100011.50
2022-10-21T09:10:49.235Z,100007.59
2022-10-21T09:11:54.083Z,100001.72
2022-10-21T09:13:04.342Z,100005.84
2022-10-21T09:14:25.838Z,100001.66
2022-10-21T09:15:56.625Z,99999.09
2022-10-21T09:17:19.293Z,100015.97
2022-10-21T09:18:59.588Z,100000.97
2022-10-21T09:20:09.349Z,99996.47
2022-10-21T09:21:29.344Z,100004.16
2022-10-21T09:22:41.764Z,99998.31
2022-10-21T09:23:49.785Z,100001.06
2022-10-21T09:24:56.917Z,99984.38
2022-10-21T09:26:07.704Z,99998.50
2022-10-21T09:27:11.183Z,99984.88
2022-10-21T09:28:17.909Z,99985.97
2022-10-21T09:29:29.142Z,99983.97
2022-10-21T09:30:31.424Z,99990.31
2022-10-21T09:31:33.877Z,99980.56
2022-10-21T09:32:41.061Z,99971.94
2022-10-21T09:33:47.713Z,99975.47
2022-10-21T09:34:58.006Z,99976.84
2022-10-21T09:36:05.826Z,99982.94
2022-10-21T09:37:19.626Z,99982.09
2022-10-21T09:38:27.720Z,99987.66
2022-10-21T09:39:55.715Z,99985.16
2022-10-21T09:41:03.429Z,99977.13
2022-10-21T09:42:11.542Z,99971.28
2022-10-21T09:43:24.416Z,99979.06
2022-10-21T09:44:26.698Z,99981.84
2022-10-21T09:45:40.296Z,99981.03
2022-10-21T09:46:46.112Z,99975.22
2022-10-21T09:47:55.997Z,99981.63
2022-10-21T09:50:21.051Z,99984.97
2022-10-21T09:51:33.971Z,99993.00
2022-10-21T09:52:38.211Z,99971.38
2022-10-21T09:53:55.620Z,99983.31
2022-10-21T09:54:58.849Z,99992.47
2022-10-21T09:56:26.242Z,99986.06
2022-10-21T09:58:02.309Z,99990.50
2022-10-21T09:59:11.664Z,99991.38
2022-10-21T10:00:14.411Z,99996.38
2022-10-21T10:01:23.878Z,100013.31
2022-10-21T10:02:34.179Z,99985.84
2022-10-21T10:03:46.044Z,99986.66
2022-10-21T10:04:48.229Z,99996.97
2022-10-21T10:05:50.541Z,99989.75
2022-10-21T10:06:52.765Z,99988.09
2022-10-21T10:07:55.004Z,99984.50
2022-10-21T10:09:28.088Z,99973.38
2022-10-21T10:10:34.254Z,99982.22
2022-10-21T10:11:49.272Z,99967.25
2022-10-21T10:12:59.403Z,99976.13
2022-10-21T10:14:24.821Z,99968.06
2022-10-21T10:15:37.388Z,99960.03
2022-10-21T10:16:39.680Z,99980.56
2022-10-21T10:17:41.951Z,99970.06
2022-10-21T10:18:45.263Z,99974.50
2022-10-21T10:20:09.142Z,99979.50
2022-10-21T10:21:17.292Z,99972.59
2022-10-21T10:22:19.482Z,99966.22
2022-10-21T10:23:21.764Z,99966.22
2022-10-21T10:24:23.974Z,99956.53
2022-10-21T10:25:32.834Z,99960.41
2022-10-21T10:26:42.515Z,99955.44
2022-10-21T10:27:52.182Z,99964.06
2022-10-21T10:28:59.220Z,99963.75
2022-10-21T10:30:02.594Z,99964.88
2022-10-21T10:31:05.068Z,99969.63
2022-10-21T10:32:14.591Z,99963.78
2022-10-21T10:33:24.958Z,99970.16
2022-10-21T10:34:33.079Z,99962.38
2022-10-21T10:35:37.890Z,99976.25
2022-10-21T10:36:41.066Z,99976.81
2022-10-21T10:37:47.981Z,99973.53
2022-10-21T10:38:56.297Z,99973.53
2022-10-21T10:40:00.968Z,99970.50
2022-10-21T10:41:15.552Z,99966.91
2022-10-21T10:42:26.074Z,99969.69
2022-10-21T10:43:31.438Z,99977.47
2022-10-21T10:44:43.008Z,99968.63
2022-10-21T10:45:53.889Z,99963.63
2022-10-21T10:46:58.487Z,99968.34
2022-10-21T10:48:06.995Z,99972.25
2022-10-21T10:49:13.066Z,99968.09
2022-10-21T10:50:40.503Z,99960.88
2022-10-21T10:51:46.500Z,99959.53
2022-10-21T10:52:48.921Z,99960.94
2022-10-21T10:54:07.729Z,99968.13
2022-10-21T10:55:13.973Z,99967.03
2022-10-21T10:56:26.116Z,99974.50
2022-10-21T10:57:39.282Z,99968.13
2022-10-21T10:59:15.293Z,99959.81
2022-10-21T11:00:23.045Z,99956.22
2022-10-21T11:01:31.446Z,99970.09
2022-10-21T11:03:05.451Z,99968.72
2022-10-21T11:04:21.351Z,99961.22
2022-10-21T11:05:29.137Z,99955.09
2022-10-21T11:06:42.540Z,99957.59
2022-10-21T11:07:51.628Z,99955.63
2022-10-21T11:08:59.926Z,99954.22
2022-10-21T11:10:07.937Z,99952.00
2022-10-21T11:11:26.110Z,99955.31
2022-10-21T11:12:28.429Z,99956.97
2022-10-21T11:13:34.031Z,99950.31
2022-10-21T11:14:36.335Z,99946.63
2022-10-21T11:16:03.729Z,99959.94
2022-10-21T11:17:20.586Z,99949.38
2022-10-21T11:18:32.693Z,99968.75
2022-10-21T11:20:02.579Z,99961.28
2022-10-21T11:21:19.873Z,99955.72
2022-10-21T11:22:37.594Z,99951.53
2022-10-21T11:23:57.652Z,99955.06
2022-10-21T11:25:31.071Z,99950.03
2022-10-21T11:27:19.160Z,99938.88
2022-10-21T11:28:38.674Z,99939.69
2022-10-21T11:30:11.878Z,99934.06
2022-10-21T11:31:32.953Z,99931.50
2022-10-21T11:33:00.304Z,99933.72
2022-10-21T11:34:24.289Z,99934.47
2022-10-21T11:35:35.707Z,99929.16
2022-10-21T11:37:00.704Z,99932.75
2022-10-21T11:38:22.539Z,99934.97
2022-10-21T11:40:00.784Z,99934.06
2022-10-21T11:41:32.808Z,99928.25
2022-10-21T11:42:43.959Z,99932.88
2022-10-21T11:44:20.225Z,99935.06
2022-10-21T11:45:40.310Z,99936.41
2022-10-21T11:47:11.435Z,99932.00
2022-10-21T11:48:22.708Z,99925.84
2022-10-21T11:49:38.992Z,99933.88
2022-10-21T11:51:03.731Z,99920.00
2022-10-21T11:52:37.207Z,99917.75
2022-10-21T11:54:01.670Z,99921.91
2022-10-21T11:55:25.715Z,99916.34
2022-10-21T11:57:01.314Z,99925.50
2022-10-21T11:58:24.606Z,99921.59
2022-10-21T11:59:59.382Z,99938.25
2022-10-21T12:01:08.440Z,99922.13
2022-10-21T12:02:23.253Z,99917.09
2022-10-21T12:03:51.645Z,99913.19
2022-10-21T12:05:20.423Z,99914.53
2022-10-21T12:06:40.975Z,99920.63
2022-10-21T12:08:10.140Z,99914.25
2022-10-21T12:09:16.413Z,99918.69
2022-10-21T12:10:36.001Z,99919.19
2022-10-21T12:11:44.581Z,99926.72
2022-10-21T12:12:50.522Z,99929.19
2022-10-21T12:13:57.896Z,99925.91
2022-10-21T12:15:04.767Z,99927.78
2022-10-21T12:16:14.368Z,99938.59
2022-10-21T12:17:20.562Z,99935.00
2022-10-21T12:18:24.513Z,99945.00
2022-10-21T12:19:29.852Z,99935.00
2022-10-21T12:20:35.293Z,99943.88
2022-10-21T12:21:42.201Z,99933.88
2022-10-21T12:22:44.628Z,99939.66
2022-10-21T12:23:54.557Z,99934.09
2022-10-21T12:25:34.045Z,99947.16
2022-10-21T12:27:14.398Z,99945.75
2022-10-21T12:28:22.497Z,99938.81
2022-10-21T12:30:10.737Z,99942.44
2022-10-21T12:31:27.783Z,99940.47
2022-10-21T12:32:42.237Z,99945.22
2022-10-21T12:33:48.021Z,99945.22
2022-10-21T12:34:50.380Z,99946.84
2022-10-21T12:35:57.034Z,99937.41
2022-10-21T12:36:59.277Z,99950.47
2022-10-21T12:38:01.437Z,99949.38
2022-10-21T12:39:04.958Z,99944.06
2022-10-21T12:40:13.393Z,99946.03
2022-10-21T12:41:24.878Z,99944.94
2022-10-21T12:42:29.644Z,99941.28
2022-10-21T12:43:31.907Z,99948.00
2022-10-21T12:44:36.652Z,99946.66
2022-10-21T12:45:39.275Z,99944.69
2022-10-21T12:46:49.366Z,99954.16
2022-10-21T12:47:53.386Z,99947.22
2022-10-21T12:48:56.854Z,99949.69
2022-10-21T12:50:30.029Z,99951.97
2022-10-21T12:51:36.320Z,99960.59
2022-10-21T12:52:39.026Z,99966.97
2022-10-21T12:53:56.501Z,99962.03
2022-10-21T12:55:02.269Z,99969.00
2022-10-21T12:56:05.866Z,99967.09
2022-10-21T12:57:11.736Z,99970.44
2022-10-21T12:58:25.491Z,99961.84
2022-10-21T12:59:35.215Z,99961.59
2022-10-21T13:00:43.621Z,99965.50
2022-10-21T13:02:05.795Z,99950.25
2022-10-21T13:03:17.213Z,99956.13
2022-10-21T13:04:31.570Z,99947.25
2022-10-21T13:05:36.783Z,99947.84